sensor_id;sensor_type;location;lat;lon;timestamp;P1;durP1;ratioP1;P2;durP2;ratioP2
18592;SDS011;9426;54.118;17.948;2022-08-20T00:04:49;30.58;;;26.83;;
18592;SDS011;9426;54.118;17.948;2022-08-20T00:10:14;36.87;;;30.87;;
18592;SDS011;9426;54.118;17.948;2022-08-20T00:15:37;47.80;;;34.55;;
18592;SDS011;9426;54.118;17.948;2022-08-20T00:21:01;37.72;;;31.50;;
18592;SDS011;9426;54.118;17.948;2022-08-20T00:26:28;42.17;;;33.33;;
18592;SDS011;9426;54.118;17.948;2022-08-20T00:31:52;38.50;;;30.47;;
18592;SDS011;9426;54.118;17.948;2022-08-20T00:37:15;32.77;;;27.53;;
18592;SDS011;9426;54.118;17.948;2022-08-20T00:42:41;32.20;;;26.40;;
18592;SDS011;9426;54.118;17.948;2022-08-20T00:48:05;30.37;;;24.00;;
18592;SDS011;9426;54.118;17.948;2022-08-20T00:53:28;36.40;;;24.80;;
18592;SDS011;9426;54.118;17.948;2022-08-20T00:58:54;25.17;;;21.53;;
18592;SDS011;9426;54.118;17.948;2022-08-20T01:04:18;23.57;;;20.47;;
18592;SDS011;9426;54.118;17.948;2022-08-20T01:09:42;27.60;;;19.57;;
18592;SDS011;9426;54.118;17.948;2022-08-20T01:15:08;27.20;;;20.10;;
18592;SDS011;9426;54.118;17.948;2022-08-20T01:20:35;23.87;;;19.70;;
18592;SDS011;9426;54.118;17.948;2022-08-20T01:26:05;24.13;;;20.30;;
18592;SDS011;9426;54.118;17.948;2022-08-20T01:31:33;26.30;;;20.73;;
18592;SDS011;9426;54.118;17.948;2022-08-20T01:36:58;27.17;;;21.47;;
18592;SDS011;9426;54.118;17.948;2022-08-20T01:42:24;27.93;;;20.77;;
18592;SDS011;9426;54.118;17.948;2022-08-20T01:47:51;28.83;;;20.80;;
18592;SDS011;9426;54.118;17.948;2022-08-20T01:53:16;25.93;;;21.07;;
18592;SDS011;9426;54.118;17.948;2022-08-20T01:58:45;25.50;;;20.90;;
18592;SDS011;9426;54.118;17.948;2022-08-20T02:04:11;25.03;;;19.37;;
18592;SDS011;9426;54.118;17.948;2022-08-20T02:09:36;25.57;;;20.10;;
18592;SDS011;9426;54.118;17.948;2022-08-20T02:15:02;24.70;;;20.17;;
18592;SDS011;9426;54.118;17.948;2022-08-20T02:20:28;36.63;;;24.80;;
18592;SDS011;9426;54.118;17.948;2022-08-20T02:25:52;31.00;;;23.73;;
18592;SDS011;9426;54.118;17.948;2022-08-20T02:31:18;35.17;;;26.60;;
18592;SDS011;9426;54.118;17.948;2022-08-20T02:36:43;36.17;;;26.10;;
18592;SDS011;9426;54.118;17.948;2022-08-20T02:42:06;43.77;;;33.20;;
18592;SDS011;9426;54.118;17.948;2022-08-20T02:47:31;40.57;;;31.77;;
18592;SDS011;9426;54.118;17.948;2022-08-20T02:52:55;40.10;;;30.23;;
18592;SDS011;9426;54.118;17.948;2022-08-20T02:58:18;50.30;;;34.27;;
18592;SDS011;9426;54.118;17.948;2022-08-20T03:03:44;48.73;;;36.27;;
18592;SDS011;9426;54.118;17.948;2022-08-20T03:09:08;39.60;;;32.40;;
18592;SDS011;9426;54.118;17.948;2022-08-20T03:14:32;37.17;;;30.07;;
18592;SDS011;9426;54.118;17.948;2022-08-20T03:19:57;35.07;;;27.77;;
18592;SDS011;9426;54.118;17.948;2022-08-20T03:25:21;39.20;;;29.50;;
18592;SDS011;9426;54.118;17.948;2022-08-20T03:30:46;32.20;;;25.53;;
18592;SDS011;9426;54.118;17.948;2022-08-20T03:36:12;40.10;;;29.37;;
18592;SDS011;9426;54.118;17.948;2022-08-20T03:41:35;27.70;;;23.57;;
18592;SDS011;9426;54.118;17.948;2022-08-20T03:46:59;37.63;;;30.77;;
18592;SDS011;9426;54.118;17.948;2022-08-20T03:52:29;35.83;;;27.97;;
18592;SDS011;9426;54.118;17.948;2022-08-20T03:57:53;47.27;;;34.97;;
18592;SDS011;9426;54.118;17.948;2022-08-20T04:03:19;37.07;;;30.50;;
18592;SDS011;9426;54.118;17.948;2022-08-20T04:08:44;43.87;;;34.57;;
18592;SDS011;9426;54.118;17.948;2022-08-20T04:14:07;41.30;;;33.37;;
18592;SDS011;9426;54.118;17.948;2022-08-20T04:19:32;45.00;;;36.17;;
18592;SDS011;9426;54.118;17.948;2022-08-20T04:24:58;41.40;;;33.73;;
18592;SDS011;9426;54.118;17.948;2022-08-20T04:30:21;32.93;;;28.23;;
18592;SDS011;9426;54.118;17.948;2022-08-20T04:35:45;34.00;;;28.10;;
18592;SDS011;9426;54.118;17.948;2022-08-20T04:41:10;32.60;;;26.97;;
18592;SDS011;9426;54.118;17.948;2022-08-20T04:46:33;37.13;;;30.50;;
18592;SDS011;9426;54.118;17.948;2022-08-20T04:51:57;40.77;;;33.33;;
18592;SDS011;9426;54.118;17.948;2022-08-20T04:57:22;35.70;;;29.63;;
18592;SDS011;9426;54.118;17.948;2022-08-20T05:02:46;39.00;;;33.07;;
18592;SDS011;9426;54.118;17.948;2022-08-20T05:08:09;31.93;;;26.70;;
18592;SDS011;9426;54.118;17.948;2022-08-20T05:13:34;33.80;;;30.10;;
18592;SDS011;9426;54.118;17.948;2022-08-20T05:18:58;33.37;;;28.57;;
18592;SDS011;9426;54.118;17.948;2022-08-20T05:24:21;29.77;;;26.57;;
18592;SDS011;9426;54.118;17.948;2022-08-20T05:29:46;33.53;;;27.20;;
18592;SDS011;9426;54.118;17.948;2022-08-20T05:35:10;35.67;;;30.13;;
18592;SDS011;9426;54.118;17.948;2022-08-20T05:40:34;38.08;;;31.92;;
18592;SDS011;9426;54.118;17.948;2022-08-20T05:45:59;35.47;;;30.33;;
18592;SDS011;9426;54.118;17.948;2022-08-20T05:51:22;29.27;;;25.80;;
18592;SDS011;9426;54.118;17.948;2022-08-20T05:56:46;26.97;;;24.07;;
18592;SDS011;9426;54.118;17.948;2022-08-20T06:02:10;29.13;;;25.50;;
18592;SDS011;9426;54.118;17.948;2022-08-20T06:07:47;30.30;;;27.02;;
18592;SDS011;9426;54.118;17.948;2022-08-20T06:13:12;29.20;;;26.00;;
18592;SDS011;9426;54.118;17.948;2022-08-20T06:18:36;32.70;;;27.38;;
18592;SDS011;9426;54.118;17.948;2022-08-20T06:23:59;28.87;;;25.30;;
18592;SDS011;9426;54.118;17.948;2022-08-20T06:29:23;30.27;;;26.35;;
18592;SDS011;9426;54.118;17.948;2022-08-20T06:34:48;28.40;;;24.67;;
18592;SDS011;9426;54.118;17.948;2022-08-20T06:40:14;29.27;;;24.10;;
18592;SDS011;9426;54.118;17.948;2022-08-20T06:45:39;27.10;;;23.88;;
18592;SDS011;9426;54.118;17.948;2022-08-20T06:51:05;24.25;;;21.00;;
18592;SDS011;9426;54.118;17.948;2022-08-20T06:56:30;29.35;;;24.63;;
18592;SDS011;9426;54.118;17.948;2022-08-20T07:01:55;34.53;;;26.85;;
18592;SDS011;9426;54.118;17.948;2022-08-20T07:07:20;29.88;;;24.92;;
18592;SDS011;9426;54.118;17.948;2022-08-20T07:12:43;27.13;;;23.30;;
18592;SDS011;9426;54.118;17.948;2022-08-20T07:18:11;30.38;;;23.90;;
18592;SDS011;9426;54.118;17.948;2022-08-20T07:23:37;26.25;;;23.40;;
18592;SDS011;9426;54.118;17.948;2022-08-20T07:29:02;34.10;;;26.05;;
18592;SDS011;9426;54.118;17.948;2022-08-20T07:34:26;33.30;;;27.48;;
18592;SDS011;9426;54.118;17.948;2022-08-20T07:39:52;27.80;;;23.63;;
18592;SDS011;9426;54.118;17.948;2022-08-20T07:45:16;30.08;;;24.42;;
18592;SDS011;9426;54.118;17.948;2022-08-20T07:50:40;29.45;;;23.55;;
18592;SDS011;9426;54.118;17.948;2022-08-20T07:56:06;28.75;;;23.35;;
18592;SDS011;9426;54.118;17.948;2022-08-20T08:01:31;23.98;;;20.67;;
18592;SDS011;9426;54.118;17.948;2022-08-20T08:06:55;27.20;;;22.80;;
18592;SDS011;9426;54.118;17.948;2022-08-20T08:12:21;24.73;;;22.00;;
18592;SDS011;9426;54.118;17.948;2022-08-20T08:17:46;26.63;;;23.25;;
18592;SDS011;9426;54.118;17.948;2022-08-20T08:23:11;25.70;;;22.88;;
18592;SDS011;9426;54.118;17.948;2022-08-20T08:28:38;27.88;;;23.58;;
18592;SDS011;9426;54.118;17.948;2022-08-20T08:34:04;27.85;;;24.70;;
18592;SDS011;9426;54.118;17.948;2022-08-20T08:39:28;29.10;;;23.73;;
18592;SDS011;9426;54.118;17.948;2022-08-20T08:44:53;32.20;;;27.15;;
18592;SDS011;9426;54.118;17.948;2022-08-20T08:50:21;40.88;;;29.65;;
18592;SDS011;9426;54.118;17.948;2022-08-20T08:55:58;31.67;;;26.13;;
18592;SDS011;9426;54.118;17.948;2022-08-20T09:01:23;31.65;;;25.95;;
18592;SDS011;9426;54.118;17.948;2022-08-20T09:06:48;29.83;;;25.75;;
18592;SDS011;9426;54.118;17.948;2022-08-20T09:12:14;29.70;;;24.40;;
18592;SDS011;9426;54.118;17.948;2022-08-20T09:17:41;31.10;;;25.65;;
18592;SDS011;9426;54.118;17.948;2022-08-20T09:23:04;33.22;;;25.75;;
18592;SDS011;9426;54.118;17.948;2022-08-20T09:28:27;30.58;;;27.08;;
18592;SDS011;9426;54.118;17.948;2022-08-20T09:33:52;36.55;;;29.25;;
18592;SDS011;9426;54.118;17.948;2022-08-20T09:39:16;30.67;;;27.33;;
18592;SDS011;9426;54.118;17.948;2022-08-20T09:44:41;35.72;;;30.42;;
18592;SDS011;9426;54.118;17.948;2022-08-20T09:50:07;31.13;;;27.73;;
18592;SDS011;9426;54.118;17.948;2022-08-20T09:55:32;34.13;;;25.70;;
18592;SDS011;9426;54.118;17.948;2022-08-20T10:01:02;32.38;;;24.48;;
18592;SDS011;9426;54.118;17.948;2022-08-20T10:06:31;27.80;;;22.17;;
18592;SDS011;9426;54.118;17.948;2022-08-20T10:11:57;27.52;;;22.65;;
18592;SDS011;9426;54.118;17.948;2022-08-20T10:17:21;35.78;;;24.08;;
18592;SDS011;9426;54.118;17.948;2022-08-20T10:22:46;27.45;;;22.92;;
18592;SDS011;9426;54.118;17.948;2022-08-20T10:28:10;28.35;;;24.33;;
18592;SDS011;9426;54.118;17.948;2022-08-20T10:33:33;26.98;;;23.10;;
18592;SDS011;9426;54.118;17.948;2022-08-20T10:38:58;30.23;;;24.98;;
18592;SDS011;9426;54.118;17.948;2022-08-20T10:44:22;31.13;;;25.15;;
18592;SDS011;9426;54.118;17.948;2022-08-20T10:49:45;33.50;;;26.05;;
18592;SDS011;9426;54.118;17.948;2022-08-20T10:55:11;30.20;;;26.00;;
18592;SDS011;9426;54.118;17.948;2022-08-20T11:00:35;31.02;;;26.00;;
18592;SDS011;9426;54.118;17.948;2022-08-20T11:05:58;29.23;;;24.42;;
18592;SDS011;9426;54.118;17.948;2022-08-20T11:11:23;30.50;;;23.48;;
18592;SDS011;9426;54.118;17.948;2022-08-20T11:16:46;31.17;;;24.52;;
18592;SDS011;9426;54.118;17.948;2022-08-20T11:22:10;27.75;;;23.25;;
18592;SDS011;9426;54.118;17.948;2022-08-20T11:27:36;27.95;;;22.80;;
18592;SDS011;9426;54.118;17.948;2022-08-20T11:33:00;26.80;;;23.42;;
18592;SDS011;9426;54.118;17.948;2022-08-20T11:38:28;27.92;;;23.92;;
18592;SDS011;9426;54.118;17.948;2022-08-20T11:43:52;25.95;;;23.05;;
18592;SDS011;9426;54.118;17.948;2022-08-20T11:49:31;24.00;;;21.40;;
18592;SDS011;9426;54.118;17.948;2022-08-20T11:54:56;23.08;;;20.02;;
18592;SDS011;9426;54.118;17.948;2022-08-20T12:00:22;24.27;;;21.65;;
18592;SDS011;9426;54.118;17.948;2022-08-20T12:05:45;25.20;;;22.23;;
18592;SDS011;9426;54.118;17.948;2022-08-20T12:11:09;25.70;;;21.20;;
18592;SDS011;9426;54.118;17.948;2022-08-20T12:16:33;25.80;;;23.00;;
18592;SDS011;9426;54.118;17.948;2022-08-20T12:21:57;26.52;;;22.60;;
18592;SDS011;9426;54.118;17.948;2022-08-20T12:27:21;26.90;;;22.67;;
18592;SDS011;9426;54.118;17.948;2022-08-20T12:32:49;28.17;;;23.50;;
18592;SDS011;9426;54.118;17.948;2022-08-20T12:38:14;29.35;;;24.73;;
18592;SDS011;9426;54.118;17.948;2022-08-20T12:43:38;32.72;;;24.50;;
18592;SDS011;9426;54.118;17.948;2022-08-20T12:49:04;32.50;;;22.88;;
18592;SDS011;9426;54.118;17.948;2022-08-20T12:54:28;29.42;;;22.63;;
18592;SDS011;9426;54.118;17.948;2022-08-20T12:59:52;26.30;;;22.35;;
18592;SDS011;9426;54.118;17.948;2022-08-20T13:05:19;26.00;;;22.08;;
18592;SDS011;9426;54.118;17.948;2022-08-20T13:10:54;24.75;;;21.58;;
18592;SDS011;9426;54.118;17.948;2022-08-20T13:16:20;28.70;;;22.92;;
18592;SDS011;9426;54.118;17.948;2022-08-20T13:21:48;25.33;;;21.55;;
18592;SDS011;9426;54.118;17.948;2022-08-20T13:27:14;23.63;;;20.98;;
18592;SDS011;9426;54.118;17.948;2022-08-20T13:32:39;23.38;;;20.13;;
18592;SDS011;9426;54.118;17.948;2022-08-20T13:38:04;24.23;;;19.80;;
18592;SDS011;9426;54.118;17.948;2022-08-20T13:43:28;21.60;;;18.23;;
18592;SDS011;9426;54.118;17.948;2022-08-20T13:48:52;23.38;;;17.95;;
18592;SDS011;9426;54.118;17.948;2022-08-20T13:54:16;21.85;;;18.00;;
18592;SDS011;9426;54.118;17.948;2022-08-20T13:59:40;20.40;;;16.88;;
18592;SDS011;9426;54.118;17.948;2022-08-20T14:05:05;20.13;;;16.02;;
18592;SDS011;9426;54.118;17.948;2022-08-20T14:10:30;22.40;;;18.65;;
18592;SDS011;9426;54.118;17.948;2022-08-20T14:15:54;22.75;;;17.45;;
18592;SDS011;9426;54.118;17.948;2022-08-20T14:21:18;19.92;;;16.90;;
18592;SDS011;9426;54.118;17.948;2022-08-20T14:26:42;23.25;;;19.02;;
18592;SDS011;9426;54.118;17.948;2022-08-20T14:32:06;20.23;;;17.83;;
18592;SDS011;9426;54.118;17.948;2022-08-20T14:37:30;24.67;;;18.05;;
18592;SDS011;9426;54.118;17.948;2022-08-20T14:42:57;18.83;;;15.98;;
18592;SDS011;9426;54.118;17.948;2022-08-20T14:48:20;20.05;;;16.65;;
18592;SDS011;9426;54.118;17.948;2022-08-20T14:53:46;19.08;;;16.10;;
18592;SDS011;9426;54.118;17.948;2022-08-20T14:59:11;20.27;;;16.10;;
18592;SDS011;9426;54.118;17.948;2022-08-20T15:04:34;20.58;;;16.63;;
18592;SDS011;9426;54.118;17.948;2022-08-20T15:09:58;16.67;;;14.93;;
18592;SDS011;9426;54.118;17.948;2022-08-20T15:15:24;18.13;;;16.05;;
18592;SDS011;9426;54.118;17.948;2022-08-20T15:20:48;19.80;;;14.98;;
18592;SDS011;9426;54.118;17.948;2022-08-20T15:26:12;18.95;;;15.35;;
18592;SDS011;9426;54.118;17.948;2022-08-20T15:31:38;17.10;;;14.73;;
18592;SDS011;9426;54.118;17.948;2022-08-20T15:37:05;17.23;;;14.32;;
18592;SDS011;9426;54.118;17.948;2022-08-20T15:42:29;15.52;;;13.90;;
18592;SDS011;9426;54.118;17.948;2022-08-20T15:47:58;17.70;;;13.80;;
18592;SDS011;9426;54.118;17.948;2022-08-20T15:53:25;16.20;;;14.48;;
18592;SDS011;9426;54.118;17.948;2022-08-20T15:58:53;17.23;;;13.75;;
18592;SDS011;9426;54.118;17.948;2022-08-20T16:04:39;16.20;;;14.18;;
18592;SDS011;9426;54.118;17.948;2022-08-20T16:10:23;16.70;;;13.15;;
18592;SDS011;9426;54.118;17.948;2022-08-20T16:15:50;15.15;;;12.85;;
18592;SDS011;9426;54.118;17.948;2022-08-20T16:21:18;14.30;;;12.80;;
18592;SDS011;9426;54.118;17.948;2022-08-20T16:26:55;14.38;;;12.50;;
18592;SDS011;9426;54.118;17.948;2022-08-20T16:38:16;18.85;;;15.27;;
18592;SDS011;9426;54.118;17.948;2022-08-20T16:43:44;18.77;;;15.00;;
18592;SDS011;9426;54.118;17.948;2022-08-20T16:49:14;17.52;;;13.98;;
18592;SDS011;9426;54.118;17.948;2022-08-20T16:54:38;16.02;;;14.32;;
18592;SDS011;9426;54.118;17.948;2022-08-20T17:00:07;17.08;;;14.80;;
18592;SDS011;9426;54.118;17.948;2022-08-20T17:05:42;16.17;;;14.07;;
18592;SDS011;9426;54.118;17.948;2022-08-20T17:11:09;21.35;;;15.75;;
18592;SDS011;9426;54.118;17.948;2022-08-20T17:16:36;24.70;;;17.33;;
18592;SDS011;9426;54.118;17.948;2022-08-20T17:22:06;27.75;;;18.35;;
18592;SDS011;9426;54.118;17.948;2022-08-20T17:27:36;22.25;;;17.90;;
18592;SDS011;9426;54.118;17.948;2022-08-20T17:33:01;21.85;;;17.35;;
18592;SDS011;9426;54.118;17.948;2022-08-20T17:38:32;21.58;;;17.98;;
18592;SDS011;9426;54.118;17.948;2022-08-20T17:44:02;23.50;;;16.60;;
18592;SDS011;9426;54.118;17.948;2022-08-20T17:49:31;20.03;;;17.43;;
18592;SDS011;9426;54.118;17.948;2022-08-20T17:54:57;23.97;;;18.70;;
18592;SDS011;9426;54.118;17.948;2022-08-20T18:00:29;23.47;;;19.80;;
18592;SDS011;9426;54.118;17.948;2022-08-20T18:05:56;26.23;;;20.07;;
18592;SDS011;9426;54.118;17.948;2022-08-20T18:11:28;23.50;;;19.90;;
18592;SDS011;9426;54.118;17.948;2022-08-20T18:17:04;24.40;;;18.67;;
18592;SDS011;9426;54.118;17.948;2022-08-20T18:22:40;27.50;;;21.13;;
18592;SDS011;9426;54.118;17.948;2022-08-20T18:28:13;25.30;;;19.77;;
18592;SDS011;9426;54.118;17.948;2022-08-20T18:33:41;24.23;;;19.60;;
18592;SDS011;9426;54.118;17.948;2022-08-20T18:39:07;24.67;;;18.60;;
18592;SDS011;9426;54.118;17.948;2022-08-20T18:44:37;23.17;;;18.73;;
18592;SDS011;9426;54.118;17.948;2022-08-20T18:50:12;28.23;;;21.43;;
18592;SDS011;9426;54.118;17.948;2022-08-20T18:55:41;26.10;;;19.57;;
18592;SDS011;9426;54.118;17.948;2022-08-20T19:01:06;27.63;;;20.63;;
18592;SDS011;9426;54.118;17.948;2022-08-20T19:06:38;27.77;;;21.67;;
18592;SDS011;9426;54.118;17.948;2022-08-20T19:12:10;27.57;;;21.80;;
18592;SDS011;9426;54.118;17.948;2022-08-20T19:17:48;30.93;;;22.87;;
18592;SDS011;9426;54.118;17.948;2022-08-20T19:23:24;27.80;;;20.53;;
18592;SDS011;9426;54.118;17.948;2022-08-20T19:28:56;21.77;;;17.50;;
18592;SDS011;9426;54.118;17.948;2022-08-20T19:34:25;25.70;;;19.77;;
18592;SDS011;9426;54.118;17.948;2022-08-20T19:39:59;20.13;;;17.20;;
18592;SDS011;9426;54.118;17.948;2022-08-20T19:45:29;27.67;;;20.43;;
18592;SDS011;9426;54.118;17.948;2022-08-20T19:51:07;21.80;;;17.73;;
18592;SDS011;9426;54.118;17.948;2022-08-20T19:56:41;21.63;;;17.67;;
18592;SDS011;9426;54.118;17.948;2022-08-20T20:02:12;28.30;;;20.60;;
18592;SDS011;9426;54.118;17.948;2022-08-20T20:07:45;26.93;;;20.57;;
18592;SDS011;9426;54.118;17.948;2022-08-20T20:13:15;29.13;;;21.57;;
18592;SDS011;9426;54.118;17.948;2022-08-20T20:18:41;36.80;;;25.13;;
18592;SDS011;9426;54.118;17.948;2022-08-20T20:24:05;38.13;;;27.23;;
18592;SDS011;9426;54.118;17.948;2022-08-20T20:29:35;44.67;;;30.40;;
18592;SDS011;9426;54.118;17.948;2022-08-20T20:35:04;40.23;;;30.10;;
18592;SDS011;9426;54.118;17.948;2022-08-20T20:40:33;48.57;;;32.27;;
18592;SDS011;9426;54.118;17.948;2022-08-20T20:46:15;58.17;;;38.37;;
18592;SDS011;9426;54.118;17.948;2022-08-20T20:51:51;50.23;;;32.80;;
18592;SDS011;9426;54.118;17.948;2022-08-20T20:57:21;46.33;;;30.63;;
18592;SDS011;9426;54.118;17.948;2022-08-20T21:02:51;39.67;;;26.57;;
18592;SDS011;9426;54.118;17.948;2022-08-20T21:08:15;38.97;;;26.17;;
18592;SDS011;9426;54.118;17.948;2022-08-20T21:13:40;39.60;;;27.67;;
18592;SDS011;9426;54.118;17.948;2022-08-20T21:19:07;38.47;;;27.27;;
18592;SDS011;9426;54.118;17.948;2022-08-20T21:24:31;50.37;;;32.20;;
18592;SDS011;9426;54.118;17.948;2022-08-20T21:29:55;38.97;;;26.60;;
18592;SDS011;9426;54.118;17.948;2022-08-20T21:35:21;37.30;;;25.20;;
18592;SDS011;9426;54.118;17.948;2022-08-20T21:40:45;35.33;;;24.50;;
18592;SDS011;9426;54.118;17.948;2022-08-20T21:46:08;33.63;;;21.73;;
18592;SDS011;9426;54.118;17.948;2022-08-20T21:51:34;31.37;;;21.73;;
18592;SDS011;9426;54.118;17.948;2022-08-20T21:57:00;35.97;;;24.63;;
18592;SDS011;9426;54.118;17.948;2022-08-20T22:02:27;20.53;;;15.23;;
18592;SDS011;9426;54.118;17.948;2022-08-20T22:07:55;15.47;;;12.00;;
18592;SDS011;9426;54.118;17.948;2022-08-20T22:13:19;10.63;;;8.93;;
18592;SDS011;9426;54.118;17.948;2022-08-20T22:18:43;8.27;;;6.67;;
18592;SDS011;9426;54.118;17.948;2022-08-20T22:24:10;7.07;;;5.80;;
18592;SDS011;9426;54.118;17.948;2022-08-20T22:29:35;7.80;;;5.43;;
18592;SDS011;9426;54.118;17.948;2022-08-20T22:34:59;7.73;;;6.33;;
18592;SDS011;9426;54.118;17.948;2022-08-20T22:40:25;8.80;;;6.20;;
18592;SDS011;9426;54.118;17.948;2022-08-20T22:45:50;8.57;;;6.23;;
18592;SDS011;9426;54.118;17.948;2022-08-20T22:51:20;8.23;;;5.50;;
18592;SDS011;9426;54.118;17.948;2022-08-20T22:56:51;7.27;;;6.43;;
18592;SDS011;9426;54.118;17.948;2022-08-20T23:02:15;7.00;;;5.47;;
18592;SDS011;9426;54.118;17.948;2022-08-20T23:07:40;9.27;;;6.80;;
18592;SDS011;9426;54.118;17.948;2022-08-20T23:13:05;9.13;;;6.73;;
18592;SDS011;9426;54.118;17.948;2022-08-20T23:18:29;9.67;;;8.17;;
18592;SDS011;9426;54.118;17.948;2022-08-20T23:23:53;10.73;;;7.80;;
18592;SDS011;9426;54.118;17.948;2022-08-20T23:29:19;11.57;;;9.63;;
18592;SDS011;9426;54.118;17.948;2022-08-20T23:34:44;13.73;;;9.93;;
18592;SDS011;9426;54.118;17.948;2022-08-20T23:40:08;11.00;;;9.30;;
18592;SDS011;9426;54.118;17.948;2022-08-20T23:45:33;15.83;;;11.03;;
18592;SDS011;9426;54.118;17.948;2022-08-20T23:50:58;14.20;;;11.10;;
18592;SDS011;9426;54.118;17.948;2022-08-20T23:56:22;12.83;;;10.43;;
